createdAt,value
2022-08-14T00:04:56.971Z,95.00
2022-08-14T00:15:23.645Z,94.90
2022-08-14T00:20:41.155Z,96.00
2022-08-14T00:26:00.304Z,95.50
2022-08-14T00:31:09.625Z,95.80
2022-08-14T00:46:37.790Z,96.50
2022-08-14T01:06:52.063Z,97.00
2022-08-14T01:12:03.358Z,97.30
2022-08-14T01:17:05.405Z,97.60
2022-08-14T01:22:12.561Z,96.80
2022-08-14T01:27:19.813Z,96.60
2022-08-14T01:58:19.980Z,98.00
2022-08-14T02:03:30.873Z,98.00
2022-08-14T02:13:37.482Z,98.80
2022-08-14T02:23:42.942Z,99.20
2022-08-14T02:34:03.921Z,98.50
2022-08-14T02:39:20.702Z,98.50
2022-08-14T02:49:34.232Z,99.00
2022-08-14T02:54:36.512Z,99.90
2022-08-14T02:59:40.464Z,99.20
2022-08-14T03:30:37.144Z,99.90
2022-08-14T03:41:10.939Z,99.90
2022-08-14T03:51:37.836Z,99.90
2022-08-14T04:07:04.277Z,99.90
2022-08-14T04:38:35.890Z,99.90
2022-08-14T04:43:39.861Z,99.90
2022-08-14T04:53:53.805Z,99.90
2022-08-14T04:58:59.302Z,99.90
2022-08-14T05:30:07.156Z,99.90
2022-08-14T06:00:39.633Z,99.90
2022-08-14T06:30:55.962Z,99.90
2022-08-14T06:41:00.917Z,99.90
2022-08-14T06:46:04.246Z,99.90
2022-08-14T06:51:06.171Z,99.90
2022-08-14T06:56:07.989Z,99.90
2022-08-14T07:01:34.215Z,99.90
2022-08-14T07:06:46.709Z,99.90
2022-08-14T07:11:49.707Z,98.20
2022-08-14T07:16:51.489Z,98.20
2022-08-14T07:21:53.288Z,94.40
2022-08-14T07:31:57.373Z,93.70
2022-08-14T07:37:01.205Z,94.00
2022-08-14T07:42:03.360Z,93.50
2022-08-14T07:47:05.477Z,93.90
2022-08-14T07:52:08.239Z,94.00
2022-08-14T07:57:12.028Z,93.50
2022-08-14T08:02:18.446Z,94.00
2022-08-14T08:07:29.909Z,94.60
2022-08-14T08:12:34.582Z,93.90
2022-08-14T08:17:42.399Z,93.70
2022-08-14T08:23:00.591Z,93.30
2022-08-14T08:28:19.745Z,92.50
2022-08-14T08:33:32.221Z,92.50
2022-08-14T08:39:16.286Z,92.60
2022-08-14T08:44:17.003Z,91.90
2022-08-14T08:49:52.832Z,91.60
2022-08-14T09:00:25.216Z,91.10
2022-08-14T09:05:28.773Z,91.30
2022-08-14T09:20:50.094Z,89.70
2022-08-14T09:26:00.958Z,90.10
2022-08-14T09:31:07.354Z,90.70
2022-08-14T09:36:30.957Z,87.80
2022-08-14T09:42:21.139Z,90.60
2022-08-14T09:48:03.869Z,90.00
2022-08-14T09:53:11.045Z,87.80
2022-08-14T09:58:22.778Z,89.20
2022-08-14T10:03:33.976Z,87.80
2022-08-14T10:09:04.181Z,88.90
2022-08-14T10:14:21.073Z,88.80
2022-08-14T10:19:31.353Z,87.20
2022-08-14T10:24:40.448Z,87.50
2022-08-14T10:29:49.391Z,87.50
2022-08-14T10:40:01.590Z,87.10
2022-08-14T10:45:04.946Z,86.70
2022-08-14T10:50:07.745Z,85.80
2022-08-14T10:55:19.346Z,87.30
2022-08-14T11:00:29.943Z,83.70
2022-08-14T11:05:41.870Z,83.40
2022-08-14T11:10:48.124Z,84.70
2022-08-14T11:20:56.518Z,83.50
2022-08-14T11:26:00.527Z,85.10
2022-08-14T11:31:05.136Z,81.30
2022-08-14T11:36:18.001Z,83.50
2022-08-14T11:41:20.635Z,78.50
2022-08-14T11:56:55.692Z,82.10
2022-08-14T12:07:01.263Z,78.30
2022-08-14T12:12:35.933Z,76.50
2022-08-14T12:17:49.710Z,77.50
2022-08-14T12:22:54.939Z,80.30
2022-08-14T12:28:01.475Z,80.60
2022-08-14T12:33:06.664Z,79.00
2022-08-14T12:38:19.368Z,77.20
2022-08-14T12:48:32.173Z,81.80
2022-08-14T12:53:38.490Z,80.40
2022-08-14T12:58:51.764Z,79.60
2022-08-14T13:04:23.722Z,80.50
2022-08-14T13:14:45.884Z,73.80
2022-08-14T13:19:49.093Z,78.30
2022-08-14T13:29:57.802Z,75.50
2022-08-14T13:35:01.275Z,79.40
2022-08-14T13:40:06.069Z,79.30
2022-08-14T13:50:15.730Z,77.10
2022-08-14T13:55:25.649Z,77.10
2022-08-14T14:00:35.891Z,81.20
2022-08-14T14:05:56.081Z,76.20
2022-08-14T14:16:06.311Z,78.70
2022-08-14T14:26:19.988Z,77.30
2022-08-14T14:31:30.229Z,75.80
2022-08-14T14:41:43.711Z,65.10
2022-08-14T14:56:56.646Z,74.80
2022-08-14T15:02:06.505Z,75.60
2022-08-14T15:32:56.899Z,79.10
2022-08-14T15:43:12.873Z,75.10
2022-08-14T15:53:25.253Z,75.70
2022-08-14T15:58:33.257Z,79.50
2022-08-14T16:03:42.310Z,79.40
2022-08-14T16:08:50.267Z,79.90
2022-08-14T16:13:59.436Z,80.10
2022-08-14T16:19:07.251Z,80.70
2022-08-14T16:24:27.093Z,81.00
2022-08-14T16:29:35.646Z,81.30
2022-08-14T16:34:44.711Z,78.50
2022-08-14T16:39:49.719Z,79.40
2022-08-14T16:44:58.155Z,81.20
2022-08-14T16:50:03.313Z,81.50
2022-08-14T16:55:08.524Z,78.60
2022-08-14T17:00:32.999Z,80.50
2022-08-14T17:05:47.003Z,81.60
2022-08-14T17:10:52.352Z,83.00
2022-08-14T17:16:24.743Z,82.90
2022-08-14T17:21:32.369Z,83.60
2022-08-14T17:26:44.019Z,84.20
2022-08-14T17:31:57.993Z,84.80
2022-08-14T17:37:03.730Z,85.40
2022-08-14T17:42:13.561Z,86.00
2022-08-14T17:47:17.865Z,86.00
2022-08-14T17:52:34.873Z,86.40
2022-08-14T17:57:40.916Z,87.70
2022-08-14T18:02:50.339Z,87.10
2022-08-14T18:08:31.313Z,87.40
2022-08-14T18:13:16.398Z,87.40
2022-08-14T18:18:18.158Z,88.60
2022-08-14T18:23:21.539Z,88.10
2022-08-14T18:28:51.375Z,88.10
2022-08-14T18:34:11.760Z,88.00
2022-08-14T18:39:25.443Z,88.60
2022-08-14T18:45:12.960Z,89.10
2022-08-14T18:50:27.752Z,88.10
2022-08-14T18:55:32.635Z,88.00
2022-08-14T19:00:40.382Z,89.20
2022-08-14T19:05:47.484Z,88.20
2022-08-14T19:10:52.411Z,87.70
2022-08-14T19:16:13.890Z,89.80
2022-08-14T19:21:26.314Z,90.20
2022-08-14T19:26:35.578Z,89.90
2022-08-14T19:31:42.662Z,89.80
2022-08-14T19:37:08.802Z,88.60
2022-08-14T19:42:14.876Z,90.30
2022-08-14T19:47:38.672Z,91.60
2022-08-14T19:52:43.183Z,90.20
2022-08-14T19:57:58.790Z,90.20
2022-08-14T20:03:10.162Z,90.80
2022-08-14T20:10:59.186Z,91.00
2022-08-14T20:13:38.685Z,91.30
2022-08-14T20:18:51.796Z,91.70
2022-08-14T20:24:31.017Z,91.10
2022-08-14T20:29:38.872Z,91.60
2022-08-14T20:34:51.235Z,90.30
2022-08-14T20:39:55.445Z,90.60
2022-08-14T20:45:23.800Z,90.20
2022-08-14T20:50:29.552Z,90.10
2022-08-14T20:55:37.209Z,89.70
2022-08-14T21:00:52.468Z,91.20
2022-08-14T21:06:01.368Z,90.60
2022-08-14T21:11:21.957Z,90.80
2022-08-14T21:16:32.947Z,90.80
2022-08-14T21:21:41.732Z,91.60
2022-08-14T21:26:52.324Z,91.90
2022-08-14T21:32:20.494Z,92.20
2022-08-14T21:37:23.568Z,92.40
2022-08-14T21:42:28.075Z,91.20
2022-08-14T21:52:50.239Z,92.00
2022-08-14T21:58:46.132Z,92.70
2022-08-14T22:03:24.173Z,92.20
2022-08-14T22:13:32.387Z,92.20
2022-08-14T22:18:34.369Z,91.70
2022-08-14T22:23:38.305Z,91.60
2022-08-14T22:28:44.944Z,92.00
2022-08-14T22:33:49.839Z,91.90
2022-08-14T22:38:51.769Z,91.60
2022-08-14T22:44:03.855Z,92.20
2022-08-14T22:54:52.502Z,93.10
2022-08-14T22:59:51.921Z,93.60
2022-08-14T23:04:57.993Z,92.80
2022-08-14T23:10:32.492Z,91.80
2022-08-14T23:15:24.656Z,92.80
2022-08-14T23:25:57.793Z,92.30
2022-08-14T23:31:05.702Z,93.70
2022-08-14T23:36:31.763Z,93.90
2022-08-14T23:41:45.991Z,94.20
2022-08-14T23:46:56.984Z,94.00
2022-08-14T23:52:56.203Z,93.30
2022-08-14T23:57:22.729Z,93.30
